sensor_id;sensor_type;location;lat;lon;timestamp;P1;durP1;ratioP1;P2;durP2;ratioP2
45198;SDS011;30941;46.422;18.772;2024-02-26T00:00:24;49.35;;;32.20;;
45198;SDS011;30941;46.422;18.772;2024-02-26T00:02:49;48.17;;;32.88;;
45198;SDS011;30941;46.422;18.772;2024-02-26T00:05:14;51.53;;;34.83;;
45198;SDS011;30941;46.422;18.772;2024-02-26T00:07:40;49.30;;;34.28;;
45198;SDS011;30941;46.422;18.772;2024-02-26T00:10:05;54.50;;;35.08;;
45198;SDS011;30941;46.422;18.772;2024-02-26T00:12:31;50.40;;;34.22;;
45198;SDS011;30941;46.422;18.772;2024-02-26T00:14:56;48.80;;;34.25;;
45198;SDS011;30941;46.422;18.772;2024-02-26T00:17:23;49.08;;;31.80;;
45198;SDS011;30941;46.422;18.772;2024-02-26T00:19:49;47.13;;;31.92;;
45198;SDS011;30941;46.422;18.772;2024-02-26T00:22:15;48.25;;;32.03;;
45198;SDS011;30941;46.422;18.772;2024-02-26T00:24:40;46.90;;;32.63;;
45198;SDS011;30941;46.422;18.772;2024-02-26T00:27:06;46.88;;;32.78;;
45198;SDS011;30941;46.422;18.772;2024-02-26T00:29:31;48.97;;;33.35;;
45198;SDS011;30941;46.422;18.772;2024-02-26T00:31:57;50.40;;;32.83;;
45198;SDS011;30941;46.422;18.772;2024-02-26T00:34:22;46.58;;;33.30;;
45198;SDS011;30941;46.422;18.772;2024-02-26T00:36:48;51.20;;;33.72;;
45198;SDS011;30941;46.422;18.772;2024-02-26T00:39:13;46.45;;;33.53;;
45198;SDS011;30941;46.422;18.772;2024-02-26T00:41:41;50.22;;;33.35;;
45198;SDS011;30941;46.422;18.772;2024-02-26T00:44:07;44.83;;;31.40;;
45198;SDS011;30941;46.422;18.772;2024-02-26T00:46:32;45.40;;;30.52;;
45198;SDS011;30941;46.422;18.772;2024-02-26T00:48:58;48.67;;;32.55;;
45198;SDS011;30941;46.422;18.772;2024-02-26T00:51:23;52.92;;;33.47;;
45198;SDS011;30941;46.422;18.772;2024-02-26T00:53:48;48.60;;;33.03;;
45198;SDS011;30941;46.422;18.772;2024-02-26T00:56:14;50.58;;;34.17;;
45198;SDS011;30941;46.422;18.772;2024-02-26T00:58:39;50.55;;;33.75;;
45198;SDS011;30941;46.422;18.772;2024-02-26T01:01:05;49.63;;;32.38;;
45198;SDS011;30941;46.422;18.772;2024-02-26T01:03:30;45.35;;;31.92;;
45198;SDS011;30941;46.422;18.772;2024-02-26T01:05:55;51.53;;;33.95;;
45198;SDS011;30941;46.422;18.772;2024-02-26T01:08:21;49.88;;;31.42;;
45198;SDS011;30941;46.422;18.772;2024-02-26T01:10:46;51.63;;;31.05;;
45198;SDS011;30941;46.422;18.772;2024-02-26T01:13:12;49.25;;;31.23;;
45198;SDS011;30941;46.422;18.772;2024-02-26T01:15:37;46.97;;;30.23;;
45198;SDS011;30941;46.422;18.772;2024-02-26T01:18:02;45.33;;;29.75;;
45198;SDS011;30941;46.422;18.772;2024-02-26T01:20:28;42.35;;;29.05;;
45198;SDS011;30941;46.422;18.772;2024-02-26T01:22:53;48.38;;;30.77;;
45198;SDS011;30941;46.422;18.772;2024-02-26T01:25:18;54.42;;;33.15;;
45198;SDS011;30941;46.422;18.772;2024-02-26T01:27:44;48.72;;;32.33;;
45198;SDS011;30941;46.422;18.772;2024-02-26T01:30:10;54.45;;;33.20;;
45198;SDS011;30941;46.422;18.772;2024-02-26T01:32:35;48.70;;;31.77;;
45198;SDS011;30941;46.422;18.772;2024-02-26T01:35:01;55.58;;;33.50;;
45198;SDS011;30941;46.422;18.772;2024-02-26T01:37:28;48.08;;;31.05;;
45198;SDS011;30941;46.422;18.772;2024-02-26T01:39:54;48.05;;;30.42;;
45198;SDS011;30941;46.422;18.772;2024-02-26T01:42:20;51.33;;;30.58;;
45198;SDS011;30941;46.422;18.772;2024-02-26T01:44:45;51.10;;;32.30;;
45198;SDS011;30941;46.422;18.772;2024-02-26T01:47:11;49.50;;;31.38;;
45198;SDS011;30941;46.422;18.772;2024-02-26T01:49:37;51.97;;;32.63;;
45198;SDS011;30941;46.422;18.772;2024-02-26T01:52:04;53.78;;;32.70;;
45198;SDS011;30941;46.422;18.772;2024-02-26T01:54:31;51.42;;;32.03;;
45198;SDS011;30941;46.422;18.772;2024-02-26T01:56:57;49.00;;;32.50;;
45198;SDS011;30941;46.422;18.772;2024-02-26T01:59:22;50.72;;;32.08;;
45198;SDS011;30941;46.422;18.772;2024-02-26T02:01:48;46.63;;;31.10;;
45198;SDS011;30941;46.422;18.772;2024-02-26T02:04:18;45.45;;;30.55;;
45198;SDS011;30941;46.422;18.772;2024-02-26T02:06:44;50.47;;;31.98;;
45198;SDS011;30941;46.422;18.772;2024-02-26T02:09:10;48.03;;;31.60;;
45198;SDS011;30941;46.422;18.772;2024-02-26T02:11:36;49.90;;;31.85;;
45198;SDS011;30941;46.422;18.772;2024-02-26T02:14:01;46.72;;;30.88;;
45198;SDS011;30941;46.422;18.772;2024-02-26T02:16:27;47.85;;;31.42;;
45198;SDS011;30941;46.422;18.772;2024-02-26T02:18:52;51.83;;;33.22;;
45198;SDS011;30941;46.422;18.772;2024-02-26T02:21:17;50.65;;;31.45;;
45198;SDS011;30941;46.422;18.772;2024-02-26T02:23:43;49.15;;;32.17;;
45198;SDS011;30941;46.422;18.772;2024-02-26T02:26:11;50.47;;;33.33;;
45198;SDS011;30941;46.422;18.772;2024-02-26T02:28:37;54.95;;;34.83;;
45198;SDS011;30941;46.422;18.772;2024-02-26T02:31:04;53.65;;;33.78;;
45198;SDS011;30941;46.422;18.772;2024-02-26T02:33:29;52.05;;;33.22;;
45198;SDS011;30941;46.422;18.772;2024-02-26T02:35:55;51.00;;;32.92;;
45198;SDS011;30941;46.422;18.772;2024-02-26T02:38:20;55.35;;;32.97;;
45198;SDS011;30941;46.422;18.772;2024-02-26T02:40:46;48.30;;;32.67;;
45198;SDS011;30941;46.422;18.772;2024-02-26T02:43:11;53.17;;;32.25;;
45198;SDS011;30941;46.422;18.772;2024-02-26T02:45:36;50.67;;;32.08;;
45198;SDS011;30941;46.422;18.772;2024-02-26T02:48:02;45.85;;;29.85;;
45198;SDS011;30941;46.422;18.772;2024-02-26T02:50:27;47.63;;;31.58;;
45198;SDS011;30941;46.422;18.772;2024-02-26T02:52:54;44.25;;;30.48;;
45198;SDS011;30941;46.422;18.772;2024-02-26T02:55:19;52.15;;;33.60;;
45198;SDS011;30941;46.422;18.772;2024-02-26T02:57:45;53.65;;;33.90;;
45198;SDS011;30941;46.422;18.772;2024-02-26T03:00:10;51.95;;;32.90;;
45198;SDS011;30941;46.422;18.772;2024-02-26T03:02:36;55.50;;;34.88;;
45198;SDS011;30941;46.422;18.772;2024-02-26T03:05:04;53.72;;;33.05;;
45198;SDS011;30941;46.422;18.772;2024-02-26T03:07:30;48.97;;;31.40;;
45198;SDS011;30941;46.422;18.772;2024-02-26T03:09:55;47.83;;;31.15;;
45198;SDS011;30941;46.422;18.772;2024-02-26T03:12:21;47.95;;;30.58;;
45198;SDS011;30941;46.422;18.772;2024-02-26T03:14:46;51.08;;;30.92;;
45198;SDS011;30941;46.422;18.772;2024-02-26T03:17:12;49.75;;;32.42;;
45198;SDS011;30941;46.422;18.772;2024-02-26T03:19:37;49.10;;;31.77;;
45198;SDS011;30941;46.422;18.772;2024-02-26T03:22:03;45.33;;;28.88;;
45198;SDS011;30941;46.422;18.772;2024-02-26T03:24:28;45.75;;;29.80;;
45198;SDS011;30941;46.422;18.772;2024-02-26T03:26:53;46.75;;;30.08;;
45198;SDS011;30941;46.422;18.772;2024-02-26T03:29:19;46.55;;;29.10;;
45198;SDS011;30941;46.422;18.772;2024-02-26T03:31:44;48.10;;;29.80;;
45198;SDS011;30941;46.422;18.772;2024-02-26T03:34:10;44.58;;;28.52;;
45198;SDS011;30941;46.422;18.772;2024-02-26T03:36:37;41.00;;;26.73;;
45198;SDS011;30941;46.422;18.772;2024-02-26T03:39:02;44.40;;;29.60;;
45198;SDS011;30941;46.422;18.772;2024-02-26T03:41:32;47.80;;;28.70;;
45198;SDS011;30941;46.422;18.772;2024-02-26T03:44:01;53.13;;;29.85;;
45198;SDS011;30941;46.422;18.772;2024-02-26T03:46:26;47.67;;;30.17;;
45198;SDS011;30941;46.422;18.772;2024-02-26T03:48:52;42.30;;;29.15;;
45198;SDS011;30941;46.422;18.772;2024-02-26T03:51:17;46.65;;;29.83;;
45198;SDS011;30941;46.422;18.772;2024-02-26T03:53:42;52.35;;;31.05;;
45198;SDS011;30941;46.422;18.772;2024-02-26T03:56:08;50.00;;;29.70;;
45198;SDS011;30941;46.422;18.772;2024-02-26T03:58:34;44.03;;;28.40;;
45198;SDS011;30941;46.422;18.772;2024-02-26T04:01:00;40.75;;;27.15;;
45198;SDS011;30941;46.422;18.772;2024-02-26T04:03:25;49.55;;;27.83;;
45198;SDS011;30941;46.422;18.772;2024-02-26T04:05:51;48.95;;;28.27;;
45198;SDS011;30941;46.422;18.772;2024-02-26T04:08:16;47.70;;;27.23;;
45198;SDS011;30941;46.422;18.772;2024-02-26T04:10:41;39.97;;;25.63;;
45198;SDS011;30941;46.422;18.772;2024-02-26T04:13:07;41.45;;;26.98;;
45198;SDS011;30941;46.422;18.772;2024-02-26T04:15:32;41.65;;;25.58;;
45198;SDS011;30941;46.422;18.772;2024-02-26T04:17:58;48.90;;;29.35;;
45198;SDS011;30941;46.422;18.772;2024-02-26T04:20:23;49.47;;;30.67;;
45198;SDS011;30941;46.422;18.772;2024-02-26T04:22:49;46.85;;;30.00;;
45198;SDS011;30941;46.422;18.772;2024-02-26T04:25:14;49.65;;;31.75;;
45198;SDS011;30941;46.422;18.772;2024-02-26T04:27:40;49.17;;;29.17;;
45198;SDS011;30941;46.422;18.772;2024-02-26T04:30:06;43.30;;;27.83;;
45198;SDS011;30941;46.422;18.772;2024-02-26T04:32:32;44.33;;;29.13;;
45198;SDS011;30941;46.422;18.772;2024-02-26T04:34:57;43.58;;;27.33;;
45198;SDS011;30941;46.422;18.772;2024-02-26T04:37:22;41.17;;;27.27;;
45198;SDS011;30941;46.422;18.772;2024-02-26T04:39:48;45.55;;;26.75;;
45198;SDS011;30941;46.422;18.772;2024-02-26T04:42:13;39.78;;;26.95;;
45198;SDS011;30941;46.422;18.772;2024-02-26T04:44:39;44.70;;;27.17;;
45198;SDS011;30941;46.422;18.772;2024-02-26T04:47:04;42.15;;;29.20;;
45198;SDS011;30941;46.422;18.772;2024-02-26T04:49:29;47.92;;;29.58;;
45198;SDS011;30941;46.422;18.772;2024-02-26T04:51:55;45.83;;;28.00;;
45198;SDS011;30941;46.422;18.772;2024-02-26T04:54:20;48.90;;;30.55;;
45198;SDS011;30941;46.422;18.772;2024-02-26T04:56:46;47.45;;;30.05;;
45198;SDS011;30941;46.422;18.772;2024-02-26T04:59:11;42.70;;;28.30;;
45198;SDS011;30941;46.422;18.772;2024-02-26T05:01:36;46.88;;;31.27;;
45198;SDS011;30941;46.422;18.772;2024-02-26T05:04:02;54.28;;;34.72;;
45198;SDS011;30941;46.422;18.772;2024-02-26T05:06:28;57.97;;;35.65;;
45198;SDS011;30941;46.422;18.772;2024-02-26T05:08:54;54.42;;;35.83;;
45198;SDS011;30941;46.422;18.772;2024-02-26T05:11:19;49.17;;;32.47;;
45198;SDS011;30941;46.422;18.772;2024-02-26T05:13:44;52.50;;;31.63;;
45198;SDS011;30941;46.422;18.772;2024-02-26T05:16:10;48.42;;;31.95;;
45198;SDS011;30941;46.422;18.772;2024-02-26T05:18:36;50.50;;;31.85;;
45198;SDS011;30941;46.422;18.772;2024-02-26T05:21:01;52.03;;;30.85;;
45198;SDS011;30941;46.422;18.772;2024-02-26T05:23:28;50.03;;;30.83;;
45198;SDS011;30941;46.422;18.772;2024-02-26T05:25:53;51.78;;;32.97;;
45198;SDS011;30941;46.422;18.772;2024-02-26T05:28:19;45.05;;;29.52;;
45198;SDS011;30941;46.422;18.772;2024-02-26T05:30:45;56.85;;;33.42;;
45198;SDS011;30941;46.422;18.772;2024-02-26T05:33:11;58.10;;;34.17;;
45198;SDS011;30941;46.422;18.772;2024-02-26T05:35:37;87.63;;;32.90;;
45198;SDS011;30941;46.422;18.772;2024-02-26T05:38:02;108.78;;;34.72;;
45198;SDS011;30941;46.422;18.772;2024-02-26T05:40:28;88.85;;;34.67;;
45198;SDS011;30941;46.422;18.772;2024-02-26T05:42:53;77.47;;;32.60;;
45198;SDS011;30941;46.422;18.772;2024-02-26T05:45:19;131.35;;;32.55;;
45198;SDS011;30941;46.422;18.772;2024-02-26T05:47:44;73.78;;;32.03;;
45198;SDS011;30941;46.422;18.772;2024-02-26T05:50:10;65.63;;;29.83;;
45198;SDS011;30941;46.422;18.772;2024-02-26T05:52:36;71.85;;;28.83;;
45198;SDS011;30941;46.422;18.772;2024-02-26T05:55:03;53.53;;;28.45;;
45198;SDS011;30941;46.422;18.772;2024-02-26T05:57:29;84.82;;;32.33;;
45198;SDS011;30941;46.422;18.772;2024-02-26T05:59:54;50.55;;;29.50;;
45198;SDS011;30941;46.422;18.772;2024-02-26T06:02:19;48.35;;;27.92;;
45198;SDS011;30941;46.422;18.772;2024-02-26T06:04:45;52.03;;;29.55;;
45198;SDS011;30941;46.422;18.772;2024-02-26T06:07:11;51.03;;;28.33;;
45198;SDS011;30941;46.422;18.772;2024-02-26T06:09:36;61.92;;;26.95;;
45198;SDS011;30941;46.422;18.772;2024-02-26T06:12:02;45.63;;;26.20;;
45198;SDS011;30941;46.422;18.772;2024-02-26T06:14:27;42.45;;;25.25;;
45198;SDS011;30941;46.422;18.772;2024-02-26T06:16:53;41.30;;;25.95;;
45198;SDS011;30941;46.422;18.772;2024-02-26T06:19:18;41.03;;;26.48;;
45198;SDS011;30941;46.422;18.772;2024-02-26T06:21:44;38.53;;;25.42;;
45198;SDS011;30941;46.422;18.772;2024-02-26T06:24:09;38.50;;;27.52;;
45198;SDS011;30941;46.422;18.772;2024-02-26T06:26:34;35.42;;;27.38;;
45198;SDS011;30941;46.422;18.772;2024-02-26T06:29:00;35.67;;;26.55;;
45198;SDS011;30941;46.422;18.772;2024-02-26T06:31:25;36.80;;;26.05;;
45198;SDS011;30941;46.422;18.772;2024-02-26T06:33:52;38.03;;;26.92;;
45198;SDS011;30941;46.422;18.772;2024-02-26T06:36:18;41.72;;;27.30;;
45198;SDS011;30941;46.422;18.772;2024-02-26T06:38:44;37.90;;;25.65;;
45198;SDS011;30941;46.422;18.772;2024-02-26T06:41:09;41.67;;;27.13;;
45198;SDS011;30941;46.422;18.772;2024-02-26T06:43:35;37.15;;;25.45;;
45198;SDS011;30941;46.422;18.772;2024-02-26T06:46:00;38.40;;;26.17;;
45198;SDS011;30941;46.422;18.772;2024-02-26T06:48:25;34.55;;;23.98;;
45198;SDS011;30941;46.422;18.772;2024-02-26T06:50:51;36.42;;;24.40;;
45198;SDS011;30941;46.422;18.772;2024-02-26T06:53:16;36.00;;;24.38;;
45198;SDS011;30941;46.422;18.772;2024-02-26T06:55:42;35.15;;;24.23;;
45198;SDS011;30941;46.422;18.772;2024-02-26T06:58:08;36.67;;;23.63;;
45198;SDS011;30941;46.422;18.772;2024-02-26T07:00:33;37.65;;;23.55;;
45198;SDS011;30941;46.422;18.772;2024-02-26T07:02:59;32.72;;;23.48;;
45198;SDS011;30941;46.422;18.772;2024-02-26T07:05:24;35.95;;;23.15;;
45198;SDS011;30941;46.422;18.772;2024-02-26T07:07:49;36.28;;;23.30;;
45198;SDS011;30941;46.422;18.772;2024-02-26T07:10:15;32.28;;;21.30;;
45198;SDS011;30941;46.422;18.772;2024-02-26T07:12:40;34.88;;;22.13;;
45198;SDS011;30941;46.422;18.772;2024-02-26T07:15:06;31.40;;;21.23;;
45198;SDS011;30941;46.422;18.772;2024-02-26T07:17:33;33.45;;;21.38;;
45198;SDS011;30941;46.422;18.772;2024-02-26T07:19:59;29.55;;;20.10;;
45198;SDS011;30941;46.422;18.772;2024-02-26T07:22:24;29.88;;;19.35;;
45198;SDS011;30941;46.422;18.772;2024-02-26T07:24:50;29.70;;;20.30;;
45198;SDS011;30941;46.422;18.772;2024-02-26T07:27:16;31.48;;;18.73;;
45198;SDS011;30941;46.422;18.772;2024-02-26T07:29:42;31.52;;;19.48;;
45198;SDS011;30941;46.422;18.772;2024-02-26T07:32:08;31.95;;;20.42;;
45198;SDS011;30941;46.422;18.772;2024-02-26T07:34:33;29.70;;;19.42;;
45198;SDS011;30941;46.422;18.772;2024-02-26T07:36:59;33.75;;;20.58;;
45198;SDS011;30941;46.422;18.772;2024-02-26T07:39:24;32.50;;;20.48;;
45198;SDS011;30941;46.422;18.772;2024-02-26T07:41:49;29.58;;;20.08;;
45198;SDS011;30941;46.422;18.772;2024-02-26T07:44:18;33.03;;;21.85;;
45198;SDS011;30941;46.422;18.772;2024-02-26T07:46:43;31.70;;;21.25;;
45198;SDS011;30941;46.422;18.772;2024-02-26T07:49:09;34.03;;;20.15;;
45198;SDS011;30941;46.422;18.772;2024-02-26T07:51:34;31.42;;;20.48;;
45198;SDS011;30941;46.422;18.772;2024-02-26T07:54:00;33.88;;;22.25;;
45198;SDS011;30941;46.422;18.772;2024-02-26T07:56:25;28.77;;;21.23;;
45198;SDS011;30941;46.422;18.772;2024-02-26T07:58:51;32.58;;;22.40;;
45198;SDS011;30941;46.422;18.772;2024-02-26T08:01:16;32.55;;;22.52;;
45198;SDS011;30941;46.422;18.772;2024-02-26T08:03:42;36.50;;;23.27;;
45198;SDS011;30941;46.422;18.772;2024-02-26T08:06:10;33.65;;;22.33;;
45198;SDS011;30941;46.422;18.772;2024-02-26T08:08:35;29.60;;;20.88;;
45198;SDS011;30941;46.422;18.772;2024-02-26T08:11:01;32.53;;;21.88;;
45198;SDS011;30941;46.422;18.772;2024-02-26T08:13:26;32.13;;;20.38;;
45198;SDS011;30941;46.422;18.772;2024-02-26T08:15:52;29.48;;;20.13;;
45198;SDS011;30941;46.422;18.772;2024-02-26T08:18:17;26.38;;;19.17;;
45198;SDS011;30941;46.422;18.772;2024-02-26T08:20:44;29.15;;;19.00;;
45198;SDS011;30941;46.422;18.772;2024-02-26T08:23:09;26.85;;;19.77;;
45198;SDS011;30941;46.422;18.772;2024-02-26T08:25:34;24.30;;;16.48;;
45198;SDS011;30941;46.422;18.772;2024-02-26T08:28:00;27.45;;;17.48;;
45198;SDS011;30941;46.422;18.772;2024-02-26T08:30:25;21.30;;;16.00;;
45198;SDS011;30941;46.422;18.772;2024-02-26T08:32:51;24.80;;;17.83;;
45198;SDS011;30941;46.422;18.772;2024-02-26T08:35:17;23.23;;;16.75;;
45198;SDS011;30941;46.422;18.772;2024-02-26T08:37:46;27.25;;;16.52;;
45198;SDS011;30941;46.422;18.772;2024-02-26T08:40:12;23.33;;;14.82;;
45198;SDS011;30941;46.422;18.772;2024-02-26T08:42:38;23.38;;;15.35;;
45198;SDS011;30941;46.422;18.772;2024-02-26T08:45:04;28.08;;;17.35;;
45198;SDS011;30941;46.422;18.772;2024-02-26T08:47:30;21.50;;;14.23;;
45198;SDS011;30941;46.422;18.772;2024-02-26T08:49:55;19.30;;;14.35;;
45198;SDS011;30941;46.422;18.772;2024-02-26T08:52:20;23.35;;;14.55;;
45198;SDS011;30941;46.422;18.772;2024-02-26T08:54:46;20.95;;;14.05;;
45198;SDS011;30941;46.422;18.772;2024-02-26T08:57:12;19.25;;;13.65;;
45198;SDS011;30941;46.422;18.772;2024-02-26T08:59:37;18.58;;;13.70;;
45198;SDS011;30941;46.422;18.772;2024-02-26T09:02:03;19.95;;;12.75;;
45198;SDS011;30941;46.422;18.772;2024-02-26T09:04:28;19.30;;;13.50;;
45198;SDS011;30941;46.422;18.772;2024-02-26T09:06:53;17.85;;;12.20;;
45198;SDS011;30941;46.422;18.772;2024-02-26T09:09:19;21.17;;;12.90;;
45198;SDS011;30941;46.422;18.772;2024-02-26T09:11:47;18.45;;;12.63;;
45198;SDS011;30941;46.422;18.772;2024-02-26T09:14:12;17.55;;;12.35;;
45198;SDS011;30941;46.422;18.772;2024-02-26T09:16:37;19.30;;;12.60;;
45198;SDS011;30941;46.422;18.772;2024-02-26T09:19:03;19.10;;;11.63;;
45198;SDS011;30941;46.422;18.772;2024-02-26T09:21:28;17.40;;;12.18;;
45198;SDS011;30941;46.422;18.772;2024-02-26T09:23:54;16.20;;;11.20;;
45198;SDS011;30941;46.422;18.772;2024-02-26T09:26:19;15.73;;;10.48;;
45198;SDS011;30941;46.422;18.772;2024-02-26T09:28:44;22.48;;;11.30;;
45198;SDS011;30941;46.422;18.772;2024-02-26T09:31:10;17.05;;;10.20;;
45198;SDS011;30941;46.422;18.772;2024-02-26T09:33:35;16.23;;;10.20;;
45198;SDS011;30941;46.422;18.772;2024-02-26T09:36:00;15.15;;;9.60;;
45198;SDS011;30941;46.422;18.772;2024-02-26T09:38:26;15.85;;;11.00;;
45198;SDS011;30941;46.422;18.772;2024-02-26T09:40:52;16.35;;;10.02;;
45198;SDS011;30941;46.422;18.772;2024-02-26T09:43:19;14.48;;;9.35;;
45198;SDS011;30941;46.422;18.772;2024-02-26T09:45:47;17.73;;;10.65;;
45198;SDS011;30941;46.422;18.772;2024-02-26T09:48:12;16.00;;;9.90;;
45198;SDS011;30941;46.422;18.772;2024-02-26T09:50:41;16.65;;;11.18;;
45198;SDS011;30941;46.422;18.772;2024-02-26T09:53:08;16.10;;;11.02;;
45198;SDS011;30941;46.422;18.772;2024-02-26T09:55:35;15.65;;;10.60;;
45198;SDS011;30941;46.422;18.772;2024-02-26T09:58:00;16.55;;;9.73;;
45198;SDS011;30941;46.422;18.772;2024-02-26T10:00:26;13.15;;;9.52;;
45198;SDS011;30941;46.422;18.772;2024-02-26T10:02:55;14.60;;;9.95;;
45198;SDS011;30941;46.422;18.772;2024-02-26T10:05:21;14.57;;;10.02;;
45198;SDS011;30941;46.422;18.772;2024-02-26T10:07:47;10.80;;;7.60;;
45198;SDS011;30941;46.422;18.772;2024-02-26T10:10:13;12.25;;;7.07;;
45198;SDS011;30941;46.422;18.772;2024-02-26T10:12:39;9.98;;;7.53;;
45198;SDS011;30941;46.422;18.772;2024-02-26T10:15:04;10.55;;;6.57;;
45198;SDS011;30941;46.422;18.772;2024-02-26T10:17:30;11.80;;;6.32;;
45198;SDS011;30941;46.422;18.772;2024-02-26T10:20:10;7.65;;;5.50;;
45198;SDS011;30941;46.422;18.772;2024-02-26T10:22:40;7.80;;;4.80;;
45198;SDS011;30941;46.422;18.772;2024-02-26T10:25:06;7.05;;;4.22;;
45198;SDS011;30941;46.422;18.772;2024-02-26T10:27:32;6.82;;;4.13;;
45198;SDS011;30941;46.422;18.772;2024-02-26T10:30:04;5.30;;;3.92;;
45198;SDS011;30941;46.422;18.772;2024-02-26T10:32:39;8.50;;;5.40;;
45198;SDS011;30941;46.422;18.772;2024-02-26T10:35:08;6.38;;;4.53;;
45198;SDS011;30941;46.422;18.772;2024-02-26T10:37:33;8.10;;;5.13;;
45198;SDS011;30941;46.422;18.772;2024-02-26T10:39:59;8.00;;;6.07;;
45198;SDS011;30941;46.422;18.772;2024-02-26T10:42:25;10.48;;;7.03;;
45198;SDS011;30941;46.422;18.772;2024-02-26T10:44:51;9.40;;;6.50;;
45198;SDS011;30941;46.422;18.772;2024-02-26T10:47:16;9.43;;;6.75;;
45198;SDS011;30941;46.422;18.772;2024-02-26T10:49:44;9.73;;;6.90;;
45198;SDS011;30941;46.422;18.772;2024-02-26T10:52:13;10.88;;;7.63;;
45198;SDS011;30941;46.422;18.772;2024-02-26T10:54:39;15.02;;;8.80;;
45198;SDS011;30941;46.422;18.772;2024-02-26T10:57:06;10.05;;;7.72;;
45198;SDS011;30941;46.422;18.772;2024-02-26T10:59:33;10.15;;;8.07;;
45198;SDS011;30941;46.422;18.772;2024-02-26T11:02:00;13.98;;;7.40;;
45198;SDS011;30941;46.422;18.772;2024-02-26T11:04:25;8.85;;;6.47;;
45198;SDS011;30941;46.422;18.772;2024-02-26T11:06:53;9.68;;;6.75;;
45198;SDS011;30941;46.422;18.772;2024-02-26T11:09:20;8.68;;;6.35;;
45198;SDS011;30941;46.422;18.772;2024-02-26T11:11:47;10.82;;;6.78;;
45198;SDS011;30941;46.422;18.772;2024-02-26T11:14:13;9.75;;;7.05;;
45198;SDS011;30941;46.422;18.772;2024-02-26T11:16:39;10.35;;;6.47;;
45198;SDS011;30941;46.422;18.772;2024-02-26T11:19:08;28.50;;;6.63;;
45198;SDS011;30941;46.422;18.772;2024-02-26T11:21:35;7.90;;;5.22;;
45198;SDS011;30941;46.422;18.772;2024-02-26T11:24:14;22.30;;;6.10;;
45198;SDS011;30941;46.422;18.772;2024-02-26T11:26:42;10.10;;;5.82;;
45198;SDS011;30941;46.422;18.772;2024-02-26T11:29:10;7.80;;;5.78;;
45198;SDS011;30941;46.422;18.772;2024-02-26T11:31:38;7.65;;;4.97;;
45198;SDS011;30941;46.422;18.772;2024-02-26T11:34:04;8.07;;;4.95;;
45198;SDS011;30941;46.422;18.772;2024-02-26T11:36:29;28.45;;;5.82;;
45198;SDS011;30941;46.422;18.772;2024-02-26T11:38:55;7.10;;;5.00;;
45198;SDS011;30941;46.422;18.772;2024-02-26T11:41:20;6.13;;;4.70;;
45198;SDS011;30941;46.422;18.772;2024-02-26T11:46:28;6.68;;;5.00;;
45198;SDS011;30941;46.422;18.772;2024-02-26T11:48:58;5.75;;;4.70;;
45198;SDS011;30941;46.422;18.772;2024-02-26T11:51:28;6.65;;;5.03;;
45198;SDS011;30941;46.422;18.772;2024-02-26T11:53:57;6.95;;;5.05;;
45198;SDS011;30941;46.422;18.772;2024-02-26T11:56:23;7.03;;;5.15;;
45198;SDS011;30941;46.422;18.772;2024-02-26T11:58:59;7.80;;;4.22;;
45198;SDS011;30941;46.422;18.772;2024-02-26T12:12:02;7.53;;;5.47;;
45198;SDS011;30941;46.422;18.772;2024-02-26T12:14:38;8.20;;;4.90;;
45198;SDS011;30941;46.422;18.772;2024-02-26T12:17:04;9.23;;;4.93;;
45198;SDS011;30941;46.422;18.772;2024-02-26T12:19:34;7.75;;;5.25;;
45198;SDS011;30941;46.422;18.772;2024-02-26T12:22:00;8.05;;;4.80;;
45198;SDS011;30941;46.422;18.772;2024-02-26T12:24:26;8.40;;;5.07;;
45198;SDS011;30941;46.422;18.772;2024-02-26T12:26:51;7.45;;;5.07;;
45198;SDS011;30941;46.422;18.772;2024-02-26T12:29:16;7.60;;;5.20;;
45198;SDS011;30941;46.422;18.772;2024-02-26T12:31:43;7.47;;;5.35;;
45198;SDS011;30941;46.422;18.772;2024-02-26T12:34:09;9.27;;;5.05;;
45198;SDS011;30941;46.422;18.772;2024-02-26T12:36:34;8.77;;;5.18;;
45198;SDS011;30941;46.422;18.772;2024-02-26T12:39:01;8.18;;;5.40;;
45198;SDS011;30941;46.422;18.772;2024-02-26T12:41:27;6.90;;;5.47;;
45198;SDS011;30941;46.422;18.772;2024-02-26T12:43:53;7.45;;;5.03;;
45198;SDS011;30941;46.422;18.772;2024-02-26T12:46:18;7.10;;;5.28;;
45198;SDS011;30941;46.422;18.772;2024-02-26T12:48:44;5.35;;;4.57;;
45198;SDS011;30941;46.422;18.772;2024-02-26T12:51:12;8.00;;;4.80;;
45198;SDS011;30941;46.422;18.772;2024-02-26T12:53:40;6.63;;;5.03;;
45198;SDS011;30941;46.422;18.772;2024-02-26T12:56:08;6.65;;;5.28;;
45198;SDS011;30941;46.422;18.772;2024-02-26T12:58:34;6.97;;;5.18;;
45198;SDS011;30941;46.422;18.772;2024-02-26T13:00:59;13.82;;;5.20;;
45198;SDS011;30941;46.422;18.772;2024-02-26T13:03:25;7.25;;;4.93;;
45198;SDS011;30941;46.422;18.772;2024-02-26T13:05:52;6.78;;;5.40;;
45198;SDS011;30941;46.422;18.772;2024-02-26T13:08:19;8.45;;;5.65;;
45198;SDS011;30941;46.422;18.772;2024-02-26T13:10:48;8.27;;;5.45;;
45198;SDS011;30941;46.422;18.772;2024-02-26T13:13:20;8.68;;;5.30;;
45198;SDS011;30941;46.422;18.772;2024-02-26T13:15:45;7.37;;;5.67;;
45198;SDS011;30941;46.422;18.772;2024-02-26T13:18:12;10.00;;;5.32;;
45198;SDS011;30941;46.422;18.772;2024-02-26T13:20:38;7.57;;;5.63;;
45198;SDS011;30941;46.422;18.772;2024-02-26T13:23:08;7.13;;;5.65;;
45198;SDS011;30941;46.422;18.772;2024-02-26T13:25:36;8.05;;;6.03;;
45198;SDS011;30941;46.422;18.772;2024-02-26T13:30:45;10.88;;;5.80;;
45198;SDS011;30941;46.422;18.772;2024-02-26T13:33:15;13.95;;;5.30;;
45198;SDS011;30941;46.422;18.772;2024-02-26T13:35:41;7.80;;;5.75;;
45198;SDS011;30941;46.422;18.772;2024-02-26T13:38:06;7.00;;;5.53;;
45198;SDS011;30941;46.422;18.772;2024-02-26T13:40:32;8.63;;;5.72;;
45198;SDS011;30941;46.422;18.772;2024-02-26T13:42:57;9.98;;;5.80;;
45198;SDS011;30941;46.422;18.772;2024-02-26T13:45:23;9.02;;;5.63;;
45198;SDS011;30941;46.422;18.772;2024-02-26T13:47:48;7.32;;;4.60;;
45198;SDS011;30941;46.422;18.772;2024-02-26T13:50:14;8.13;;;5.65;;
45198;SDS011;30941;46.422;18.772;2024-02-26T13:52:39;6.43;;;5.00;;
45198;SDS011;30941;46.422;18.772;2024-02-26T13:55:04;8.85;;;5.20;;
45198;SDS011;30941;46.422;18.772;2024-02-26T13:57:30;7.88;;;5.28;;
45198;SDS011;30941;46.422;18.772;2024-02-26T13:59:56;11.13;;;5.25;;
45198;SDS011;30941;46.422;18.772;2024-02-26T14:02:21;9.35;;;5.10;;
45198;SDS011;30941;46.422;18.772;2024-02-26T14:04:46;8.00;;;5.25;;
45198;SDS011;30941;46.422;18.772;2024-02-26T14:07:12;12.52;;;5.93;;
45198;SDS011;30941;46.422;18.772;2024-02-26T14:09:37;7.45;;;5.35;;
45198;SDS011;30941;46.422;18.772;2024-02-26T14:12:03;8.40;;;5.90;;
45198;SDS011;30941;46.422;18.772;2024-02-26T14:14:29;8.15;;;5.47;;
45198;SDS011;30941;46.422;18.772;2024-02-26T14:16:57;7.75;;;5.32;;
45198;SDS011;30941;46.422;18.772;2024-02-26T14:19:23;9.30;;;5.95;;
45198;SDS011;30941;46.422;18.772;2024-02-26T14:21:48;10.63;;;6.25;;
45198;SDS011;30941;46.422;18.772;2024-02-26T14:24:13;11.30;;;6.18;;